EWG89A LKPR-BIKF
Flight info
| Callsign | EWG89A |
|---|---|
| Flight time | 3h 52m |
| Altitude | 34000 |
| Route | VENOX DCT DEKOV Y621 ESLOR M748 BOLBO DCT GARLU DCT KUGAL DCT VAXIT/N0448F360 DCT ARTEX DCT LAMRO DCT BAMRA DCT DEVBI DCT RATSU/M077F360 DCT ALDAN DCT ASRUN ASRUN4N |
| Aircraft | A320/M-SDE3FGHIRWY/LB1 |
Departure
| Time | 2026-05-05 18:06 |
|---|---|
| Airport | Václav Havel Airport Prague (LKPR) |
Arrival
| Time | 2026-05-05 21:58 |
|---|---|
| Airport | Keflavik International Airport (BIKF) |
| Time | Latitude | Longitude | Altitude | Speed | Heading |
|---|---|---|---|---|---|
| 2026-05-05 17:25 | 50.10672 | 14.26424 | 1172 ft | 0 kts | 214° |
| 2026-05-05 17:26 | 50.10673 | 14.26424 | 1172 ft | 0 kts | 214° |
| 2026-05-05 17:35 | 50.10673 | 14.26425 | 1172 ft | 0 kts | 214° |
| 2026-05-05 17:57 | 50.10677 | 14.26428 | 1170 ft | 3 kts | 214° |
| 2026-05-05 17:57 | 50.10699 | 14.26452 | 1170 ft | 4 kts | 214° |
| 2026-05-05 17:58 | 50.10717 | 14.26471 | 1170 ft | 4 kts | 226° |
| 2026-05-05 17:58 | 50.10727 | 14.26504 | 1169 ft | 4 kts | 276° |
| 2026-05-05 17:58 | 50.10722 | 14.26530 | 1169 ft | 0 kts | 304° |
| 2026-05-05 18:01 | 50.10732 | 14.26507 | 1170 ft | 5 kts | 304° |
| 2026-05-05 18:02 | 50.10761 | 14.26441 | 1173 ft | 10 kts | 304° |
| 2026-05-05 18:02 | 50.10807 | 14.26336 | 1171 ft | 14 kts | 301° |
| 2026-05-05 18:02 | 50.10856 | 14.26192 | 1173 ft | 15 kts | 306° |
| 2026-05-05 18:02 | 50.10918 | 14.26057 | 1167 ft | 16 kts | 305° |
| 2026-05-05 18:03 | 50.10950 | 14.25903 | 1163 ft | 15 kts | 232° |
| 2026-05-05 18:03 | 50.10877 | 14.25823 | 1165 ft | 11 kts | 214° |
| 2026-05-05 18:03 | 50.10812 | 14.25752 | 1166 ft | 13 kts | 214° |
| 2026-05-05 18:03 | 50.10745 | 14.25680 | 1169 ft | 11 kts | 214° |
| 2026-05-05 18:04 | 50.10666 | 14.25597 | 1172 ft | 16 kts | 214° |
| 2026-05-05 18:04 | 50.10600 | 14.25482 | 1169 ft | 14 kts | 249° |
| 2026-05-05 18:04 | 50.10580 | 14.25329 | 1170 ft | 17 kts | 259° |
| 2026-05-05 18:04 | 50.10542 | 14.25146 | 1165 ft | 15 kts | 219° |
| 2026-05-05 18:05 | 50.10477 | 14.25208 | 1165 ft | 11 kts | 127° |
| 2026-05-05 18:05 | 50.10405 | 14.25357 | 1175 ft | 39 kts | 127° |
| 2026-05-05 18:05 | 50.10091 | 14.26006 | 1191 ft | 110 kts | 127° |
| 2026-05-05 18:05 | 50.09511 | 14.27206 | 1217 ft | 164 kts | 127° |
| 2026-05-05 18:06 | 50.08762 | 14.28725 | 1617 ft | 185 kts | 127° |
| 2026-05-05 18:06 | 50.08250 | 14.29787 | 1989 ft | 184 kts | 124° |
| 2026-05-05 18:06 | 50.07230 | 14.31906 | 2776 ft | 182 kts | 124° |
| 2026-05-05 18:06 | 50.06446 | 14.33533 | 3110 ft | 197 kts | 124° |
| 2026-05-05 18:07 | 50.05581 | 14.35334 | 3344 ft | 219 kts | 124° |
| 2026-05-05 18:07 | 50.04615 | 14.37337 | 3545 ft | 243 kts | 124° |
| 2026-05-05 18:07 | 50.03551 | 14.39531 | 3963 ft | 260 kts | 126° |
| 2026-05-05 18:07 | 50.02451 | 14.41791 | 4674 ft | 264 kts | 127° |
| 2026-05-05 18:08 | 50.01341 | 14.44064 | 5060 ft | 265 kts | 127° |
| 2026-05-05 18:08 | 50.00355 | 14.46481 | 5844 ft | 267 kts | 111° |
| 2026-05-05 18:08 | 50.00134 | 14.49352 | 6544 ft | 274 kts | 82° |
| 2026-05-05 18:08 | 50.00881 | 14.52102 | 7198 ft | 283 kts | 52° |
| 2026-05-05 18:09 | 50.02356 | 14.54129 | 7820 ft | 291 kts | 38° |
| 2026-05-05 18:09 | 50.03984 | 14.56004 | 8497 ft | 295 kts | 37° |
| 2026-05-05 18:09 | 50.05658 | 14.57906 | 9164 ft | 300 kts | 37° |
| 2026-05-05 18:09 | 50.07359 | 14.59838 | 9808 ft | 305 kts | 37° |
| 2026-05-05 18:10 | 50.09170 | 14.61702 | 10097 ft | 323 kts | 27° |
| 2026-05-05 18:10 | 50.11325 | 14.62999 | 10229 ft | 345 kts | 13° |
| 2026-05-05 18:10 | 50.13754 | 14.63336 | 10591 ft | 355 kts | 354° |
| 2026-05-05 18:10 | 50.16157 | 14.62398 | 11168 ft | 357 kts | 333° |
| 2026-05-05 18:11 | 50.18232 | 14.60289 | 11785 ft | 357 kts | 320° |
| 2026-05-05 18:11 | 50.20192 | 14.57868 | 12428 ft | 360 kts | 319° |
| 2026-05-05 18:11 | 50.22158 | 14.55411 | 13049 ft | 364 kts | 319° |
| 2026-05-05 18:11 | 50.24137 | 14.52925 | 13603 ft | 367 kts | 319° |
| 2026-05-05 18:12 | 50.26142 | 14.50408 | 14162 ft | 370 kts | 319° |
| 2026-05-05 18:12 | 50.28154 | 14.47883 | 14714 ft | 373 kts | 319° |
| 2026-05-05 18:12 | 50.30189 | 14.45331 | 15263 ft | 375 kts | 319° |
| 2026-05-05 18:12 | 50.32210 | 14.42799 | 15793 ft | 378 kts | 319° |
| 2026-05-05 18:13 | 50.34275 | 14.40210 | 16317 ft | 382 kts | 319° |
| 2026-05-05 18:13 | 50.36362 | 14.37591 | 16842 ft | 385 kts | 319° |
| 2026-05-05 18:13 | 50.38457 | 14.34958 | 17372 ft | 388 kts | 319° |
| 2026-05-05 18:13 | 50.40571 | 14.32298 | 17895 ft | 391 kts | 319° |
| 2026-05-05 18:14 | 50.42699 | 14.29619 | 18365 ft | 394 kts | 319° |
| 2026-05-05 18:14 | 50.44846 | 14.26911 | 18822 ft | 396 kts | 319° |
| 2026-05-05 18:14 | 50.46997 | 14.24187 | 19298 ft | 399 kts | 319° |
| 2026-05-05 18:14 | 50.49166 | 14.21434 | 19778 ft | 401 kts | 318° |
| 2026-05-05 18:15 | 50.51382 | 14.18693 | 20248 ft | 404 kts | 323° |
| 2026-05-05 18:15 | 50.53799 | 14.16561 | 20682 ft | 411 kts | 334° |
| 2026-05-05 18:15 | 50.56532 | 14.15167 | 21139 ft | 417 kts | 346° |
| 2026-05-05 18:15 | 50.59435 | 14.14645 | 21588 ft | 422 kts | 358° |
| 2026-05-05 18:16 | 50.62380 | 14.15026 | 22011 ft | 427 kts | 7° |
| 2026-05-05 18:16 | 50.65330 | 14.15727 | 22412 ft | 430 kts | 7° |
| 2026-05-05 18:16 | 50.68293 | 14.16437 | 22816 ft | 433 kts | 7° |
| 2026-05-05 18:16 | 50.71293 | 14.17162 | 23212 ft | 436 kts | 7° |
| 2026-05-05 18:17 | 50.74298 | 14.17890 | 23573 ft | 438 kts | 7° |
| 2026-05-05 18:17 | 50.77316 | 14.18626 | 23930 ft | 440 kts | 7° |
| 2026-05-05 18:17 | 50.80346 | 14.19369 | 24275 ft | 442 kts | 7° |
| 2026-05-05 18:17 | 50.83393 | 14.20113 | 24605 ft | 444 kts | 7° |
| 2026-05-05 18:18 | 50.86453 | 14.20856 | 24906 ft | 446 kts | 7° |
| 2026-05-05 18:18 | 50.89542 | 14.21315 | 25196 ft | 446 kts | 358° |
| 2026-05-05 18:18 | 50.92632 | 14.21030 | 25500 ft | 445 kts | 349° |
| 2026-05-05 18:18 | 50.95702 | 14.20342 | 25829 ft | 446 kts | 349° |
| 2026-05-05 18:19 | 50.98786 | 14.19655 | 26174 ft | 447 kts | 349° |
| 2026-05-05 18:19 | 51.01871 | 14.18926 | 26480 ft | 447 kts | 345° |
| 2026-05-05 18:19 | 51.04849 | 14.17620 | 26769 ft | 445 kts | 336° |
| 2026-05-05 18:19 | 51.07667 | 14.15572 | 27056 ft | 442 kts | 327° |
| 2026-05-05 18:20 | 51.10217 | 14.12878 | 27335 ft | 439 kts | 317° |
| 2026-05-05 18:20 | 51.11759 | 14.10799 | 27517 ft | 439 kts | 315° |
| 2026-05-05 18:20 | 51.14841 | 14.06518 | 27888 ft | 441 kts | 315° |
| 2026-05-05 18:20 | 51.16377 | 14.04388 | 28085 ft | 442 kts | 315° |
| 2026-05-05 18:21 | 51.19489 | 14.00079 | 28440 ft | 444 kts | 315° |
| 2026-05-05 18:21 | 51.21830 | 13.96832 | 28713 ft | 445 kts | 315° |
| 2026-05-05 18:21 | 51.24142 | 13.93611 | 29001 ft | 445 kts | 315° |
| 2026-05-05 18:21 | 51.26482 | 13.90338 | 29260 ft | 446 kts | 315° |
| 2026-05-05 18:22 | 51.28819 | 13.87063 | 29491 ft | 448 kts | 315° |
| 2026-05-05 18:22 | 51.31161 | 13.83782 | 29717 ft | 449 kts | 315° |
| 2026-05-05 18:22 | 51.32716 | 13.81602 | 29859 ft | 449 kts | 315° |
| 2026-05-05 18:22 | 51.35081 | 13.78284 | 30049 ft | 450 kts | 315° |
| 2026-05-05 18:23 | 51.37435 | 13.74977 | 30320 ft | 449 kts | 315° |
| 2026-05-05 18:23 | 51.39782 | 13.71678 | 30587 ft | 448 kts | 315° |
| 2026-05-05 18:23 | 51.42118 | 13.68387 | 30829 ft | 447 kts | 315° |
| 2026-05-05 18:23 | 51.44447 | 13.65095 | 31091 ft | 446 kts | 314° |
| 2026-05-05 18:24 | 51.46774 | 13.61798 | 31342 ft | 446 kts | 314° |
| 2026-05-05 18:24 | 51.48991 | 13.58374 | 31590 ft | 442 kts | 309° |
| 2026-05-05 18:24 | 51.51108 | 13.54764 | 31886 ft | 440 kts | 308° |
| 2026-05-05 18:24 | 51.53179 | 13.51151 | 32160 ft | 439 kts | 308° |
| 2026-05-05 18:25 | 51.55206 | 13.47564 | 32418 ft | 438 kts | 307° |
| 2026-05-05 18:25 | 51.56589 | 13.45098 | 32584 ft | 437 kts | 307° |
| 2026-05-05 18:25 | 51.59277 | 13.40298 | 32924 ft | 436 kts | 307° |
| 2026-05-05 18:25 | 51.61315 | 13.36677 | 33177 ft | 435 kts | 307° |
| 2026-05-05 18:26 | 51.63349 | 13.33074 | 33428 ft | 434 kts | 307° |
| 2026-05-05 18:26 | 51.65378 | 13.29481 | 33686 ft | 433 kts | 307° |
| 2026-05-05 18:26 | 51.67403 | 13.25894 | 33795 ft | 431 kts | 307° |
| 2026-05-05 18:27 | 51.71413 | 13.18788 | 33810 ft | 427 kts | 307° |
| 2026-05-05 18:27 | 51.75404 | 13.11670 | 33814 ft | 428 kts | 307° |
| 2026-05-05 18:28 | 51.81266 | 13.01156 | 33821 ft | 427 kts | 306° |
| 2026-05-05 18:28 | 51.85230 | 12.94026 | 33816 ft | 426 kts | 306° |
| 2026-05-05 18:29 | 51.89194 | 12.86902 | 33818 ft | 426 kts | 306° |
| 2026-05-05 18:29 | 51.93157 | 12.79758 | 33817 ft | 426 kts | 306° |
| 2026-05-05 18:30 | 51.97107 | 12.72594 | 33819 ft | 426 kts | 306° |
| 2026-05-05 18:30 | 52.01036 | 12.65444 | 33818 ft | 427 kts | 306° |
| 2026-05-05 18:31 | 52.04977 | 12.58251 | 33814 ft | 427 kts | 306° |
| 2026-05-05 18:31 | 52.08936 | 12.51017 | 33813 ft | 427 kts | 306° |
| 2026-05-05 18:32 | 52.12884 | 12.43790 | 33848 ft | 426 kts | 306° |
| 2026-05-05 18:32 | 52.16811 | 12.36575 | 33857 ft | 426 kts | 306° |
| 2026-05-05 18:33 | 52.20739 | 12.29323 | 33842 ft | 426 kts | 305° |
| 2026-05-05 18:33 | 52.24661 | 12.22062 | 33837 ft | 427 kts | 305° |
| 2026-05-05 18:34 | 52.28572 | 12.14816 | 33837 ft | 427 kts | 305° |
| 2026-05-05 18:34 | 52.32495 | 12.07531 | 33836 ft | 427 kts | 305° |
| 2026-05-05 18:35 | 52.36414 | 12.00224 | 33844 ft | 427 kts | 305° |
| 2026-05-05 18:35 | 52.40324 | 11.92909 | 33851 ft | 428 kts | 305° |
| 2026-05-05 18:36 | 52.44226 | 11.85583 | 33861 ft | 427 kts | 305° |
| 2026-05-05 18:36 | 52.48134 | 11.78228 | 33869 ft | 427 kts | 305° |
| 2026-05-05 18:37 | 52.52049 | 11.70848 | 33867 ft | 427 kts | 305° |
| 2026-05-05 18:37 | 52.55943 | 11.63479 | 33871 ft | 427 kts | 304° |
| 2026-05-05 18:38 | 52.59808 | 11.56135 | 33878 ft | 427 kts | 304° |
| 2026-05-05 18:38 | 52.63694 | 11.48735 | 33866 ft | 428 kts | 304° |
| 2026-05-05 18:39 | 52.67591 | 11.41293 | 33859 ft | 429 kts | 304° |
| 2026-05-05 18:39 | 52.71513 | 11.33776 | 33887 ft | 429 kts | 304° |
| 2026-05-05 18:40 | 52.75371 | 11.26376 | 33899 ft | 428 kts | 304° |
| 2026-05-05 18:40 | 52.79259 | 11.18903 | 33893 ft | 427 kts | 304° |
| 2026-05-05 18:41 | 52.83173 | 11.11483 | 33893 ft | 431 kts | 309° |
| 2026-05-05 18:41 | 52.87623 | 11.04747 | 33957 ft | 436 kts | 311° |
| 2026-05-05 18:42 | 52.89896 | 11.01348 | 34079 ft | 438 kts | 311° |
| 2026-05-05 18:42 | 52.92155 | 10.97962 | 34219 ft | 439 kts | 311° |
| 2026-05-05 18:42 | 52.94413 | 10.94570 | 34421 ft | 438 kts | 311° |
| 2026-05-05 18:42 | 52.96666 | 10.91180 | 34741 ft | 435 kts | 311° |
| 2026-05-05 18:43 | 52.98894 | 10.87824 | 35056 ft | 431 kts | 311° |
| 2026-05-05 18:43 | 53.01099 | 10.84494 | 35382 ft | 426 kts | 311° |
| 2026-05-05 18:43 | 53.03258 | 10.81224 | 35706 ft | 422 kts | 311° |
| 2026-05-05 18:43 | 53.05425 | 10.77933 | 35871 ft | 422 kts | 311° |
| 2026-05-05 18:44 | 53.09796 | 10.71263 | 35897 ft | 430 kts | 311° |
| 2026-05-05 18:44 | 53.14242 | 10.64486 | 35900 ft | 435 kts | 312° |
| 2026-05-05 18:45 | 53.18713 | 10.57667 | 35901 ft | 436 kts | 312° |
| 2026-05-05 18:45 | 53.23189 | 10.50822 | 35900 ft | 436 kts | 311° |
| 2026-05-05 18:46 | 53.27613 | 10.44007 | 35903 ft | 436 kts | 311° |
| 2026-05-05 18:46 | 53.32077 | 10.37117 | 35931 ft | 435 kts | 311° |
| 2026-05-05 18:47 | 53.36527 | 10.30244 | 35933 ft | 434 kts | 311° |
| 2026-05-05 18:47 | 53.40959 | 10.23359 | 35920 ft | 434 kts | 311° |
| 2026-05-05 18:48 | 53.45391 | 10.16469 | 35904 ft | 435 kts | 311° |
| 2026-05-05 18:48 | 53.49831 | 10.09544 | 35897 ft | 435 kts | 311° |
| 2026-05-05 18:49 | 53.54259 | 10.02603 | 35892 ft | 435 kts | 311° |
| 2026-05-05 18:49 | 53.58680 | 9.95661 | 35913 ft | 435 kts | 310° |
| 2026-05-05 18:50 | 53.63104 | 9.88708 | 35913 ft | 434 kts | 310° |
| 2026-05-05 18:50 | 53.67504 | 9.81764 | 35913 ft | 433 kts | 310° |
| 2026-05-05 18:51 | 53.71893 | 9.74809 | 35916 ft | 432 kts | 310° |
| 2026-05-05 18:51 | 53.76277 | 9.67841 | 35919 ft | 432 kts | 310° |
| 2026-05-05 18:52 | 53.80649 | 9.60872 | 35917 ft | 432 kts | 310° |
| 2026-05-05 18:52 | 53.85018 | 9.53875 | 35919 ft | 432 kts | 310° |
| 2026-05-05 18:53 | 53.89350 | 9.46916 | 35955 ft | 431 kts | 310° |
| 2026-05-05 18:53 | 53.93699 | 9.39931 | 35940 ft | 431 kts | 310° |
| 2026-05-05 18:54 | 53.98050 | 9.32920 | 35936 ft | 430 kts | 310° |
| 2026-05-05 18:54 | 54.02379 | 9.25896 | 35931 ft | 430 kts | 310° |
| 2026-05-05 18:55 | 54.06711 | 9.18864 | 35927 ft | 430 kts | 310° |
| 2026-05-05 18:55 | 54.11044 | 9.11820 | 35924 ft | 430 kts | 310° |
| 2026-05-05 18:56 | 54.15373 | 9.04747 | 35926 ft | 430 kts | 310° |
| 2026-05-05 18:56 | 54.19690 | 8.97684 | 35958 ft | 429 kts | 310° |
| 2026-05-05 18:57 | 54.23982 | 8.90637 | 35952 ft | 427 kts | 310° |
| 2026-05-05 18:57 | 54.28257 | 8.83596 | 35940 ft | 426 kts | 310° |
| 2026-05-05 18:58 | 54.32525 | 8.76546 | 35940 ft | 425 kts | 310° |
| 2026-05-05 18:58 | 54.36777 | 8.69497 | 35948 ft | 425 kts | 310° |
| 2026-05-05 18:59 | 54.41021 | 8.62429 | 35941 ft | 425 kts | 310° |
| 2026-05-05 18:59 | 54.45260 | 8.55356 | 35978 ft | 425 kts | 310° |
| 2026-05-05 19:00 | 54.49471 | 8.48316 | 35968 ft | 424 kts | 309° |
| 2026-05-05 19:00 | 54.53699 | 8.41219 | 35961 ft | 424 kts | 309° |
| 2026-05-05 19:01 | 54.57861 | 8.34209 | 35963 ft | 424 kts | 309° |
| 2026-05-05 19:01 | 54.61395 | 8.28246 | 35959 ft | 423 kts | 309° |
| 2026-05-05 19:02 | 54.65575 | 8.21171 | 35957 ft | 423 kts | 309° |
| 2026-05-05 19:02 | 54.69775 | 8.14037 | 35953 ft | 423 kts | 309° |
| 2026-05-05 19:03 | 54.73981 | 8.06872 | 35968 ft | 424 kts | 309° |
| 2026-05-05 19:03 | 54.78187 | 7.99703 | 35956 ft | 425 kts | 310° |
| 2026-05-05 19:04 | 54.82397 | 7.92488 | 35948 ft | 426 kts | 310° |
| 2026-05-05 19:04 | 54.86612 | 7.85244 | 35945 ft | 427 kts | 310° |
| 2026-05-05 19:05 | 54.90823 | 7.77982 | 35948 ft | 427 kts | 310° |
| 2026-05-05 19:05 | 54.95033 | 7.70680 | 35957 ft | 427 kts | 310° |
| 2026-05-05 19:06 | 54.99232 | 7.63391 | 35724 ft | 424 kts | 310° |
| 2026-05-05 19:06 | 55.01336 | 7.59773 | 35557 ft | 425 kts | 311° |
| 2026-05-05 19:06 | 55.03482 | 7.56231 | 35353 ft | 425 kts | 313° |
| 2026-05-05 19:07 | 55.05661 | 7.52744 | 35128 ft | 425 kts | 313° |
| 2026-05-05 19:07 | 55.07857 | 7.49267 | 34907 ft | 425 kts | 313° |
| 2026-05-05 19:07 | 55.10019 | 7.45838 | 34692 ft | 425 kts | 313° |
| 2026-05-05 19:07 | 55.12211 | 7.42335 | 34474 ft | 425 kts | 313° |
| 2026-05-05 19:08 | 55.14374 | 7.38846 | 34261 ft | 425 kts | 313° |
| 2026-05-05 19:08 | 55.16544 | 7.35321 | 34057 ft | 425 kts | 313° |
| 2026-05-05 19:08 | 55.18703 | 7.31795 | 33928 ft | 424 kts | 313° |
| 2026-05-05 19:08 | 55.20861 | 7.28254 | 33978 ft | 425 kts | 313° |
| 2026-05-05 19:09 | 55.25178 | 7.21166 | 33976 ft | 425 kts | 313° |
| 2026-05-05 19:09 | 55.29503 | 7.14065 | 33969 ft | 426 kts | 313° |
| 2026-05-05 19:10 | 55.33823 | 7.06950 | 33979 ft | 424 kts | 312° |
| 2026-05-05 19:10 | 55.38110 | 6.99885 | 33979 ft | 422 kts | 312° |
| 2026-05-05 19:11 | 55.42387 | 6.92813 | 33975 ft | 421 kts | 312° |
| 2026-05-05 19:11 | 55.46646 | 6.85726 | 33974 ft | 421 kts | 312° |
| 2026-05-05 19:12 | 55.50874 | 6.78663 | 33979 ft | 421 kts | 312° |
| 2026-05-05 19:12 | 55.55130 | 6.71560 | 33979 ft | 421 kts | 312° |
| 2026-05-05 19:13 | 55.59375 | 6.64428 | 33994 ft | 420 kts | 311° |
| 2026-05-05 19:13 | 55.63605 | 6.57306 | 34018 ft | 419 kts | 311° |
| 2026-05-05 19:14 | 55.67810 | 6.50198 | 34012 ft | 417 kts | 311° |
| 2026-05-05 19:14 | 55.72000 | 6.43108 | 34006 ft | 416 kts | 311° |
| 2026-05-05 19:15 | 55.76172 | 6.36012 | 34006 ft | 415 kts | 311° |
| 2026-05-05 19:15 | 55.80336 | 6.28919 | 34004 ft | 414 kts | 311° |
| 2026-05-05 19:16 | 55.84498 | 6.21815 | 34004 ft | 414 kts | 311° |
| 2026-05-05 19:16 | 55.88648 | 6.14694 | 34013 ft | 414 kts | 310° |
| 2026-05-05 19:17 | 55.92770 | 6.07605 | 33997 ft | 414 kts | 310° |
| 2026-05-05 19:17 | 55.96908 | 6.00445 | 33994 ft | 414 kts | 310° |
| 2026-05-05 19:18 | 56.01047 | 5.93290 | 33995 ft | 414 kts | 310° |
| 2026-05-05 19:18 | 56.05183 | 5.86120 | 33992 ft | 414 kts | 310° |
| 2026-05-05 19:19 | 56.09307 | 5.78925 | 33990 ft | 414 kts | 310° |
| 2026-05-05 19:19 | 56.13422 | 5.71724 | 33991 ft | 414 kts | 310° |
| 2026-05-05 19:20 | 56.17548 | 5.64507 | 34005 ft | 414 kts | 310° |
| 2026-05-05 19:20 | 56.21663 | 5.57273 | 34021 ft | 414 kts | 310° |
| 2026-05-05 19:21 | 56.25766 | 5.50020 | 34015 ft | 413 kts | 310° |
| 2026-05-05 19:21 | 56.29852 | 5.42775 | 34013 ft | 413 kts | 310° |
| 2026-05-05 19:22 | 56.33957 | 5.35507 | 34009 ft | 413 kts | 310° |
| 2026-05-05 19:22 | 56.38048 | 5.28242 | 34009 ft | 413 kts | 310° |
| 2026-05-05 19:23 | 56.42106 | 5.20986 | 34012 ft | 413 kts | 309° |
| 2026-05-05 19:23 | 56.46176 | 5.13661 | 34009 ft | 413 kts | 309° |
| 2026-05-05 19:24 | 56.50248 | 5.06333 | 34047 ft | 412 kts | 309° |
| 2026-05-05 19:24 | 56.54136 | 4.98791 | 34035 ft | 405 kts | 300° |
| 2026-05-05 19:25 | 56.57168 | 4.90253 | 34021 ft | 402 kts | 297° |
| 2026-05-05 19:25 | 56.60173 | 4.81682 | 34022 ft | 402 kts | 297° |
| 2026-05-05 19:26 | 56.63173 | 4.73091 | 34022 ft | 402 kts | 297° |
| 2026-05-05 19:26 | 56.66132 | 4.64542 | 34026 ft | 402 kts | 297° |
| 2026-05-05 19:27 | 56.69101 | 4.55930 | 34022 ft | 402 kts | 297° |
| 2026-05-05 19:27 | 56.72075 | 4.47307 | 34021 ft | 401 kts | 297° |
| 2026-05-05 19:28 | 56.75036 | 4.38683 | 34028 ft | 401 kts | 297° |
| 2026-05-05 19:28 | 56.77973 | 4.30091 | 34061 ft | 401 kts | 297° |
| 2026-05-05 19:29 | 56.80919 | 4.21459 | 34055 ft | 400 kts | 297° |
| 2026-05-05 19:29 | 56.83854 | 4.12808 | 34050 ft | 400 kts | 297° |
| 2026-05-05 19:30 | 56.86782 | 4.04153 | 34043 ft | 400 kts | 297° |
| 2026-05-05 19:30 | 56.89687 | 3.95498 | 34035 ft | 400 kts | 296° |
| 2026-05-05 19:31 | 56.92594 | 3.86843 | 34028 ft | 401 kts | 296° |
| 2026-05-05 19:31 | 56.95503 | 3.78149 | 34024 ft | 401 kts | 296° |
| 2026-05-05 19:32 | 56.98402 | 3.69444 | 34029 ft | 401 kts | 296° |
| 2026-05-05 19:32 | 57.01300 | 3.60702 | 34034 ft | 401 kts | 296° |
| 2026-05-05 19:33 | 57.04213 | 3.52039 | 34044 ft | 402 kts | 298° |
| 2026-05-05 19:33 | 57.07361 | 3.43521 | 34077 ft | 403 kts | 300° |
| 2026-05-05 19:34 | 57.10575 | 3.35101 | 34070 ft | 402 kts | 300° |
| 2026-05-05 19:35 | 57.15321 | 3.22371 | 34062 ft | 401 kts | 299° |
| 2026-05-05 19:35 | 57.18441 | 3.13854 | 34057 ft | 401 kts | 299° |
| 2026-05-05 19:36 | 57.21564 | 3.05326 | 34054 ft | 400 kts | 299° |
| 2026-05-05 19:36 | 57.24673 | 2.96809 | 34059 ft | 400 kts | 299° |
| 2026-05-05 19:37 | 57.27779 | 2.88268 | 34049 ft | 400 kts | 299° |
| 2026-05-05 19:37 | 57.30876 | 2.79714 | 34026 ft | 400 kts | 299° |
| 2026-05-05 19:38 | 57.33958 | 2.71196 | 34020 ft | 400 kts | 299° |
| 2026-05-05 19:38 | 57.37053 | 2.62600 | 34071 ft | 400 kts | 299° |
| 2026-05-05 19:39 | 57.40129 | 2.54019 | 34074 ft | 399 kts | 299° |
| 2026-05-05 19:39 | 57.43201 | 2.45437 | 34065 ft | 398 kts | 298° |
| 2026-05-05 19:40 | 57.45740 | 2.38296 | 34079 ft | 398 kts | 298° |
| 2026-05-05 19:40 | 57.48789 | 2.29694 | 34065 ft | 398 kts | 298° |
| 2026-05-05 19:41 | 57.51835 | 2.21081 | 34055 ft | 398 kts | 298° |
| 2026-05-05 19:41 | 57.54875 | 2.12479 | 34065 ft | 398 kts | 298° |
| 2026-05-05 19:42 | 57.57908 | 2.03850 | 34063 ft | 398 kts | 298° |
| 2026-05-05 19:42 | 57.60935 | 1.95193 | 34063 ft | 398 kts | 298° |
| 2026-05-05 19:43 | 57.63931 | 1.86585 | 34110 ft | 398 kts | 298° |
| 2026-05-05 19:43 | 57.66945 | 1.77902 | 34112 ft | 397 kts | 298° |
| 2026-05-05 19:44 | 57.69949 | 1.69240 | 34104 ft | 396 kts | 298° |
| 2026-05-05 19:44 | 57.72936 | 1.60604 | 34103 ft | 395 kts | 298° |
| 2026-05-05 19:45 | 57.75901 | 1.51955 | 34097 ft | 394 kts | 298° |
| 2026-05-05 19:45 | 57.78862 | 1.43295 | 34098 ft | 394 kts | 298° |
| 2026-05-05 19:46 | 57.81818 | 1.34641 | 34089 ft | 394 kts | 298° |
| 2026-05-05 19:46 | 57.84772 | 1.25951 | 34081 ft | 394 kts | 297° |
| 2026-05-05 19:47 | 57.87715 | 1.17263 | 34085 ft | 394 kts | 298° |
| 2026-05-05 19:47 | 57.90632 | 1.08622 | 34085 ft | 394 kts | 297° |
| 2026-05-05 19:48 | 57.93556 | 0.99906 | 34119 ft | 393 kts | 297° |
| 2026-05-05 19:48 | 57.96439 | 0.91271 | 34117 ft | 392 kts | 297° |
| 2026-05-05 19:49 | 57.99343 | 0.82597 | 34115 ft | 391 kts | 297° |
| 2026-05-05 19:49 | 58.02240 | 0.73921 | 34109 ft | 390 kts | 297° |
| 2026-05-05 19:50 | 58.05115 | 0.65236 | 34103 ft | 390 kts | 297° |
| 2026-05-05 19:50 | 58.07982 | 0.56531 | 34097 ft | 389 kts | 297° |
| 2026-05-05 19:51 | 58.10843 | 0.47831 | 34099 ft | 389 kts | 297° |
| 2026-05-05 19:51 | 58.13695 | 0.39130 | 34095 ft | 389 kts | 297° |
| 2026-05-05 19:52 | 58.16543 | 0.30399 | 34093 ft | 389 kts | 297° |
| 2026-05-05 19:52 | 58.19388 | 0.21670 | 34096 ft | 389 kts | 297° |
| 2026-05-05 19:53 | 58.22223 | 0.12940 | 34142 ft | 388 kts | 296° |
| 2026-05-05 19:53 | 58.25040 | 0.04196 | 34129 ft | 388 kts | 296° |
| 2026-05-05 19:54 | 58.27843 | -0.04550 | 34120 ft | 387 kts | 296° |
| 2026-05-05 19:54 | 58.30652 | -0.13299 | 34110 ft | 387 kts | 296° |
| 2026-05-05 19:55 | 58.33458 | -0.22051 | 34105 ft | 387 kts | 296° |
| 2026-05-05 19:55 | 58.36252 | -0.30835 | 34102 ft | 387 kts | 296° |
| 2026-05-05 19:56 | 58.39020 | -0.39585 | 34103 ft | 387 kts | 296° |
| 2026-05-05 19:56 | 58.41806 | -0.48389 | 34101 ft | 387 kts | 296° |
| 2026-05-05 19:57 | 58.44580 | -0.57209 | 34100 ft | 387 kts | 296° |
| 2026-05-05 19:57 | 58.47341 | -0.66043 | 34100 ft | 387 kts | 296° |
| 2026-05-05 19:58 | 58.50097 | -0.74875 | 34133 ft | 387 kts | 296° |
| 2026-05-05 19:58 | 58.52850 | -0.83701 | 34124 ft | 386 kts | 296° |
| 2026-05-05 19:59 | 58.55533 | -0.92352 | 34125 ft | 386 kts | 295° |
| 2026-05-05 19:59 | 58.58298 | -1.01347 | 34118 ft | 386 kts | 295° |
| 2026-05-05 20:00 | 58.61028 | -1.10223 | 34113 ft | 386 kts | 295° |
| 2026-05-05 20:00 | 58.63749 | -1.19089 | 34115 ft | 386 kts | 295° |
| 2026-05-05 20:01 | 58.66464 | -1.27977 | 34107 ft | 385 kts | 295° |
| 2026-05-05 20:01 | 58.69167 | -1.36854 | 34108 ft | 385 kts | 295° |
| 2026-05-05 20:02 | 58.71866 | -1.45786 | 34108 ft | 385 kts | 295° |
| 2026-05-05 20:02 | 58.74556 | -1.54718 | 34111 ft | 385 kts | 295° |
| 2026-05-05 20:03 | 58.77229 | -1.63603 | 34110 ft | 385 kts | 295° |
| 2026-05-05 20:03 | 58.79909 | -1.72543 | 34110 ft | 385 kts | 295° |
| 2026-05-05 20:04 | 58.82572 | -1.81503 | 34111 ft | 385 kts | 295° |
| 2026-05-05 20:04 | 58.85239 | -1.90479 | 34122 ft | 385 kts | 295° |
| 2026-05-05 20:05 | 58.87896 | -1.99469 | 34121 ft | 385 kts | 295° |
| 2026-05-05 20:05 | 58.90549 | -2.08477 | 34120 ft | 385 kts | 295° |
| 2026-05-05 20:06 | 58.93202 | -2.17487 | 34118 ft | 385 kts | 295° |
| 2026-05-05 20:06 | 58.95845 | -2.26520 | 34116 ft | 385 kts | 295° |
| 2026-05-05 20:07 | 58.98480 | -2.35568 | 34119 ft | 385 kts | 295° |
| 2026-05-05 20:07 | 59.01088 | -2.44565 | 34147 ft | 385 kts | 295° |
| 2026-05-05 20:08 | 59.03727 | -2.53666 | 34127 ft | 386 kts | 295° |
| 2026-05-05 20:08 | 59.06356 | -2.62790 | 34112 ft | 387 kts | 295° |
| 2026-05-05 20:09 | 59.08988 | -2.71975 | 34117 ft | 388 kts | 295° |
| 2026-05-05 20:09 | 59.11595 | -2.81119 | 34115 ft | 389 kts | 295° |
| 2026-05-05 20:10 | 59.14217 | -2.90333 | 34113 ft | 389 kts | 295° |
| 2026-05-05 20:10 | 59.16836 | -2.99564 | 34115 ft | 389 kts | 295° |
| 2026-05-05 20:11 | 59.19464 | -3.08881 | 34123 ft | 389 kts | 295° |
| 2026-05-05 20:11 | 59.22050 | -3.18084 | 34125 ft | 389 kts | 295° |
| 2026-05-05 20:12 | 59.24651 | -3.27375 | 34112 ft | 389 kts | 295° |
| 2026-05-05 20:12 | 59.27250 | -3.36675 | 34117 ft | 390 kts | 295° |
| 2026-05-05 20:13 | 59.29836 | -3.45989 | 34175 ft | 389 kts | 294° |
| 2026-05-05 20:13 | 59.32412 | -3.55308 | 34164 ft | 388 kts | 294° |
| 2026-05-05 20:14 | 59.34973 | -3.64599 | 34154 ft | 387 kts | 294° |
| 2026-05-05 20:14 | 59.37500 | -3.73837 | 34149 ft | 386 kts | 294° |
| 2026-05-05 20:15 | 59.40039 | -3.83118 | 34141 ft | 386 kts | 294° |
| 2026-05-05 20:15 | 59.42573 | -3.92420 | 34133 ft | 386 kts | 294° |
| 2026-05-05 20:16 | 59.45165 | -4.01662 | 34131 ft | 386 kts | 296° |
| 2026-05-05 20:16 | 59.47883 | -4.10797 | 34130 ft | 387 kts | 296° |
| 2026-05-05 20:17 | 59.50146 | -4.18384 | 34132 ft | 386 kts | 296° |
| 2026-05-05 20:17 | 59.52857 | -4.27593 | 34132 ft | 386 kts | 296° |
| 2026-05-05 20:18 | 59.55423 | -4.36438 | 34176 ft | 386 kts | 296° |
| 2026-05-05 20:18 | 59.58057 | -4.45560 | 34171 ft | 385 kts | 295° |
| 2026-05-05 20:19 | 59.60709 | -4.54773 | 34149 ft | 384 kts | 295° |
| 2026-05-05 20:19 | 59.63309 | -4.63828 | 34141 ft | 384 kts | 296° |
| 2026-05-05 20:20 | 59.65941 | -4.73026 | 34148 ft | 384 kts | 296° |
| 2026-05-05 20:20 | 59.68570 | -4.82232 | 34145 ft | 384 kts | 295° |
| 2026-05-05 20:21 | 59.71180 | -4.91441 | 34135 ft | 384 kts | 295° |
| 2026-05-05 20:21 | 59.73790 | -5.00686 | 34136 ft | 384 kts | 295° |
| 2026-05-05 20:22 | 59.76391 | -5.09940 | 34138 ft | 384 kts | 295° |
| 2026-05-05 20:22 | 59.78994 | -5.19220 | 34180 ft | 384 kts | 296° |
| 2026-05-05 20:23 | 59.81589 | -5.28492 | 34156 ft | 384 kts | 296° |
| 2026-05-05 20:23 | 59.84170 | -5.37790 | 34148 ft | 384 kts | 296° |
| 2026-05-05 20:24 | 59.86746 | -5.47106 | 34144 ft | 384 kts | 296° |
| 2026-05-05 20:24 | 59.89326 | -5.56428 | 34143 ft | 384 kts | 296° |
| 2026-05-05 20:25 | 59.91875 | -5.65716 | 34141 ft | 384 kts | 295° |
| 2026-05-05 20:25 | 59.94415 | -5.74996 | 34140 ft | 383 kts | 295° |
| 2026-05-05 20:26 | 59.96970 | -5.84371 | 34145 ft | 383 kts | 295° |
| 2026-05-05 20:26 | 59.99510 | -5.93733 | 34143 ft | 383 kts | 295° |
| 2026-05-05 20:27 | 60.02039 | -6.03106 | 34148 ft | 383 kts | 295° |
| 2026-05-05 20:27 | 60.04565 | -6.12499 | 34183 ft | 382 kts | 296° |
| 2026-05-05 20:28 | 60.07061 | -6.21822 | 34173 ft | 382 kts | 296° |
| 2026-05-05 20:28 | 60.09564 | -6.31222 | 34162 ft | 382 kts | 296° |
| 2026-05-05 20:29 | 60.12067 | -6.40624 | 34158 ft | 382 kts | 296° |
| 2026-05-05 20:29 | 60.14565 | -6.50019 | 34150 ft | 382 kts | 296° |
| 2026-05-05 20:30 | 60.17055 | -6.59461 | 34149 ft | 382 kts | 295° |
| 2026-05-05 20:30 | 60.19526 | -6.68899 | 34149 ft | 382 kts | 295° |
| 2026-05-05 20:31 | 60.21986 | -6.78348 | 34148 ft | 381 kts | 295° |
| 2026-05-05 20:31 | 60.24425 | -6.87724 | 34152 ft | 380 kts | 295° |
| 2026-05-05 20:32 | 60.26881 | -6.97181 | 34152 ft | 380 kts | 295° |
| 2026-05-05 20:32 | 60.29324 | -7.06629 | 34180 ft | 380 kts | 295° |
| 2026-05-05 20:33 | 60.31764 | -7.16127 | 34164 ft | 380 kts | 295° |
| 2026-05-05 20:33 | 60.34192 | -7.25626 | 34155 ft | 380 kts | 295° |
| 2026-05-05 20:34 | 60.36597 | -7.35070 | 34154 ft | 380 kts | 295° |
| 2026-05-05 20:34 | 60.39012 | -7.44581 | 34155 ft | 380 kts | 295° |
| 2026-05-05 20:35 | 60.41420 | -7.54108 | 34150 ft | 380 kts | 295° |
| 2026-05-05 20:35 | 60.43825 | -7.63656 | 34148 ft | 380 kts | 295° |
| 2026-05-05 20:36 | 60.46222 | -7.73221 | 34154 ft | 380 kts | 295° |
| 2026-05-05 20:36 | 60.48634 | -7.82911 | 34154 ft | 380 kts | 295° |
| 2026-05-05 20:37 | 60.50976 | -7.92386 | 34149 ft | 380 kts | 295° |
| 2026-05-05 20:37 | 60.53348 | -8.01992 | 34164 ft | 381 kts | 295° |
| 2026-05-05 20:38 | 60.55724 | -8.11654 | 34154 ft | 382 kts | 295° |
| 2026-05-05 20:38 | 60.58088 | -8.21285 | 34135 ft | 383 kts | 295° |
| 2026-05-05 20:39 | 60.60463 | -8.31002 | 34139 ft | 383 kts | 295° |
| 2026-05-05 20:39 | 60.62823 | -8.40731 | 34143 ft | 383 kts | 294° |
| 2026-05-05 20:40 | 60.65183 | -8.50496 | 34147 ft | 383 kts | 294° |
| 2026-05-05 20:40 | 60.67536 | -8.60269 | 34149 ft | 383 kts | 294° |
| 2026-05-05 20:41 | 60.69869 | -8.70017 | 34153 ft | 383 kts | 294° |
| 2026-05-05 20:41 | 60.72199 | -8.79796 | 34153 ft | 383 kts | 294° |
| 2026-05-05 20:42 | 60.74525 | -8.89583 | 34154 ft | 383 kts | 294° |
| 2026-05-05 20:42 | 60.76855 | -8.99431 | 34160 ft | 384 kts | 295° |
| 2026-05-05 20:43 | 60.79180 | -9.09308 | 34150 ft | 385 kts | 294° |
| 2026-05-05 20:43 | 60.81499 | -9.19229 | 34147 ft | 386 kts | 294° |
| 2026-05-05 20:44 | 60.83815 | -9.29151 | 34149 ft | 386 kts | 294° |
| 2026-05-05 20:44 | 60.86126 | -9.39106 | 34154 ft | 386 kts | 294° |
| 2026-05-05 20:45 | 60.89570 | -9.54073 | 34160 ft | 387 kts | 294° |
| 2026-05-05 20:45 | 60.91866 | -9.64115 | 34157 ft | 387 kts | 294° |
| 2026-05-05 20:46 | 60.94146 | -9.74108 | 34145 ft | 386 kts | 294° |
| 2026-05-05 20:46 | 60.96423 | -9.84109 | 34156 ft | 385 kts | 294° |
| 2026-05-05 20:47 | 60.98665 | -9.94045 | 34185 ft | 386 kts | 294° |
| 2026-05-05 20:47 | 61.00982 | -10.04035 | 34172 ft | 387 kts | 297° |
| 2026-05-05 20:48 | 61.03628 | -10.13722 | 34166 ft | 388 kts | 299° |
| 2026-05-05 20:48 | 61.06367 | -10.23334 | 34161 ft | 388 kts | 299° |
| 2026-05-05 20:49 | 61.09046 | -10.33046 | 34151 ft | 388 kts | 298° |
| 2026-05-05 20:49 | 61.11685 | -10.42840 | 34153 ft | 389 kts | 298° |
| 2026-05-05 20:50 | 61.13858 | -10.50966 | 34153 ft | 388 kts | 298° |
| 2026-05-05 20:50 | 61.16907 | -10.62373 | 34169 ft | 387 kts | 297° |
| 2026-05-05 20:51 | 61.19501 | -10.72113 | 34173 ft | 386 kts | 298° |
| 2026-05-05 20:51 | 61.22090 | -10.81868 | 34173 ft | 385 kts | 297° |
| 2026-05-05 20:52 | 61.24667 | -10.91618 | 34168 ft | 385 kts | 297° |
| 2026-05-05 20:52 | 61.27232 | -11.01350 | 34167 ft | 385 kts | 297° |
| 2026-05-05 20:53 | 61.29360 | -11.09480 | 34169 ft | 385 kts | 297° |
| 2026-05-05 20:53 | 61.31908 | -11.19268 | 34168 ft | 385 kts | 297° |
| 2026-05-05 20:54 | 61.34452 | -11.29071 | 34159 ft | 384 kts | 297° |
| 2026-05-05 20:54 | 61.36966 | -11.38824 | 34172 ft | 383 kts | 297° |
| 2026-05-05 20:55 | 61.39489 | -11.48608 | 34176 ft | 382 kts | 297° |
| 2026-05-05 20:55 | 61.42001 | -11.58384 | 34178 ft | 382 kts | 297° |
| 2026-05-05 20:56 | 61.44499 | -11.68192 | 34194 ft | 382 kts | 297° |
| 2026-05-05 20:56 | 61.46993 | -11.78022 | 34178 ft | 383 kts | 297° |
| 2026-05-05 20:57 | 61.49489 | -11.87866 | 34175 ft | 383 kts | 297° |
| 2026-05-05 20:57 | 61.51989 | -11.97772 | 34167 ft | 384 kts | 297° |
| 2026-05-05 20:58 | 61.54474 | -12.07667 | 34155 ft | 384 kts | 296° |
| 2026-05-05 20:58 | 61.56949 | -12.17594 | 34162 ft | 383 kts | 296° |
| 2026-05-05 20:59 | 61.59407 | -12.27503 | 34169 ft | 383 kts | 296° |
| 2026-05-05 20:59 | 61.61862 | -12.37441 | 34173 ft | 382 kts | 296° |
| 2026-05-05 21:00 | 61.64310 | -12.47376 | 34174 ft | 382 kts | 296° |
| 2026-05-05 21:00 | 61.66736 | -12.57262 | 34190 ft | 383 kts | 296° |
| 2026-05-05 21:01 | 61.69176 | -12.67260 | 34177 ft | 384 kts | 296° |
| 2026-05-05 21:01 | 61.71615 | -12.77297 | 34181 ft | 385 kts | 296° |
| 2026-05-05 21:02 | 61.74048 | -12.87369 | 34180 ft | 385 kts | 296° |
| 2026-05-05 21:02 | 61.76483 | -12.97464 | 34156 ft | 385 kts | 296° |
| 2026-05-05 21:03 | 61.78890 | -13.07507 | 34160 ft | 385 kts | 296° |
| 2026-05-05 21:03 | 61.81303 | -13.17639 | 34167 ft | 384 kts | 295° |
| 2026-05-05 21:04 | 61.83685 | -13.27684 | 34178 ft | 384 kts | 295° |
| 2026-05-05 21:04 | 61.86085 | -13.37830 | 34174 ft | 384 kts | 295° |
| 2026-05-05 21:05 | 61.88468 | -13.47977 | 34185 ft | 385 kts | 296° |
| 2026-05-05 21:05 | 61.90853 | -13.58148 | 34176 ft | 387 kts | 296° |
| 2026-05-05 21:06 | 61.93244 | -13.68409 | 34163 ft | 388 kts | 295° |
| 2026-05-05 21:06 | 61.95629 | -13.78707 | 34161 ft | 388 kts | 295° |
| 2026-05-05 21:07 | 61.97990 | -13.88965 | 34161 ft | 388 kts | 295° |
| 2026-05-05 21:07 | 62.00364 | -13.99312 | 34174 ft | 388 kts | 295° |
| 2026-05-05 21:08 | 62.02726 | -14.09638 | 34172 ft | 388 kts | 295° |
| 2026-05-05 21:08 | 62.05087 | -14.19968 | 34178 ft | 388 kts | 295° |
| 2026-05-05 21:09 | 62.07429 | -14.30329 | 34180 ft | 388 kts | 295° |
| 2026-05-05 21:09 | 62.09720 | -14.40563 | 34196 ft | 389 kts | 295° |
| 2026-05-05 21:10 | 62.12080 | -14.51093 | 34176 ft | 390 kts | 295° |
| 2026-05-05 21:10 | 62.14409 | -14.61504 | 34180 ft | 391 kts | 295° |
| 2026-05-05 21:11 | 62.16746 | -14.72024 | 34174 ft | 391 kts | 295° |
| 2026-05-05 21:11 | 62.19070 | -14.82560 | 34179 ft | 390 kts | 295° |
| 2026-05-05 21:12 | 62.21376 | -14.93088 | 34188 ft | 390 kts | 294° |
| 2026-05-05 21:12 | 62.23675 | -15.03580 | 34188 ft | 390 kts | 295° |
| 2026-05-05 21:13 | 62.25976 | -15.14147 | 34187 ft | 390 kts | 294° |
| 2026-05-05 21:13 | 62.28267 | -15.24711 | 34184 ft | 390 kts | 294° |
| 2026-05-05 21:14 | 62.30545 | -15.35296 | 34188 ft | 391 kts | 295° |
| 2026-05-05 21:14 | 62.32809 | -15.45873 | 34178 ft | 392 kts | 294° |
| 2026-05-05 21:15 | 62.35091 | -15.56582 | 34176 ft | 394 kts | 294° |
| 2026-05-05 21:15 | 62.37370 | -15.67322 | 34178 ft | 394 kts | 294° |
| 2026-05-05 21:16 | 62.39644 | -15.78096 | 34182 ft | 395 kts | 294° |
| 2026-05-05 21:16 | 62.41918 | -15.88911 | 34183 ft | 395 kts | 294° |
| 2026-05-05 21:17 | 62.44170 | -15.99676 | 34184 ft | 395 kts | 294° |
| 2026-05-05 21:17 | 62.46420 | -16.10540 | 34187 ft | 395 kts | 294° |
| 2026-05-05 21:18 | 62.48670 | -16.21418 | 34188 ft | 395 kts | 294° |
| 2026-05-05 21:18 | 62.50906 | -16.32298 | 34196 ft | 397 kts | 294° |
| 2026-05-05 21:19 | 62.53150 | -16.43244 | 34162 ft | 397 kts | 294° |
| 2026-05-05 21:19 | 62.55380 | -16.54213 | 34173 ft | 397 kts | 294° |
| 2026-05-05 21:20 | 62.57581 | -16.65148 | 34180 ft | 397 kts | 294° |
| 2026-05-05 21:20 | 62.59809 | -16.76204 | 34185 ft | 397 kts | 294° |
| 2026-05-05 21:21 | 62.61999 | -16.87132 | 34186 ft | 397 kts | 294° |
| 2026-05-05 21:21 | 62.64191 | -16.98155 | 34187 ft | 397 kts | 294° |
| 2026-05-05 21:22 | 62.66378 | -17.09191 | 34187 ft | 397 kts | 294° |
| 2026-05-05 21:22 | 62.68556 | -17.20226 | 34188 ft | 397 kts | 293° |
| 2026-05-05 21:23 | 62.70717 | -17.31251 | 34157 ft | 398 kts | 294° |
| 2026-05-05 21:23 | 62.72889 | -17.42421 | 34169 ft | 398 kts | 293° |
| 2026-05-05 21:24 | 62.75030 | -17.53514 | 34173 ft | 399 kts | 293° |
| 2026-05-05 21:24 | 62.77184 | -17.64708 | 34178 ft | 399 kts | 293° |
| 2026-05-05 21:25 | 62.79326 | -17.75868 | 34180 ft | 399 kts | 293° |
| 2026-05-05 21:25 | 62.81435 | -17.86900 | 34179 ft | 399 kts | 293° |
| 2026-05-05 21:26 | 62.83563 | -17.98150 | 34181 ft | 399 kts | 293° |
| 2026-05-05 21:26 | 62.85670 | -18.09373 | 34184 ft | 399 kts | 293° |
| 2026-05-05 21:27 | 62.87774 | -18.20641 | 34177 ft | 399 kts | 293° |
| 2026-05-05 21:27 | 62.89872 | -18.31889 | 34167 ft | 400 kts | 293° |
| 2026-05-05 21:28 | 62.91982 | -18.43269 | 34175 ft | 401 kts | 293° |
| 2026-05-05 21:28 | 62.94081 | -18.54654 | 34176 ft | 402 kts | 293° |
| 2026-05-05 21:29 | 62.96164 | -18.66061 | 34174 ft | 402 kts | 292° |
| 2026-05-05 21:29 | 62.98427 | -18.77345 | 34172 ft | 402 kts | 302° |
| 2026-05-05 21:30 | 63.01650 | -18.87310 | 34178 ft | 402 kts | 306° |
| 2026-05-05 21:30 | 63.04380 | -18.95613 | 34179 ft | 402 kts | 305° |
| 2026-05-05 21:31 | 63.06010 | -19.00602 | 34067 ft | 402 kts | 305° |
| 2026-05-05 21:31 | 63.07636 | -19.05587 | 33792 ft | 395 kts | 305° |
| 2026-05-05 21:31 | 63.09752 | -19.12075 | 33199 ft | 389 kts | 305° |
| 2026-05-05 21:31 | 63.10816 | -19.15350 | 32886 ft | 386 kts | 305° |
| 2026-05-05 21:32 | 63.12357 | -19.20098 | 32408 ft | 382 kts | 305° |
| 2026-05-05 21:32 | 63.13892 | -19.24831 | 31965 ft | 377 kts | 305° |
| 2026-05-05 21:32 | 63.15415 | -19.29544 | 31514 ft | 373 kts | 304° |
| 2026-05-05 21:32 | 63.16914 | -19.34197 | 31068 ft | 369 kts | 304° |
| 2026-05-05 21:33 | 63.18396 | -19.38805 | 30639 ft | 365 kts | 304° |
| 2026-05-05 21:33 | 63.19862 | -19.43376 | 30183 ft | 362 kts | 304° |
| 2026-05-05 21:33 | 63.21315 | -19.47917 | 29701 ft | 357 kts | 304° |
| 2026-05-05 21:33 | 63.22745 | -19.52377 | 29297 ft | 351 kts | 304° |
| 2026-05-05 21:34 | 63.24127 | -19.56697 | 28900 ft | 346 kts | 303° |
| 2026-05-05 21:34 | 63.25507 | -19.61030 | 28504 ft | 341 kts | 303° |
| 2026-05-05 21:34 | 63.26860 | -19.65296 | 28132 ft | 336 kts | 303° |
| 2026-05-05 21:34 | 63.28196 | -19.69512 | 27763 ft | 331 kts | 303° |
| 2026-05-05 21:35 | 63.29506 | -19.73653 | 27388 ft | 326 kts | 303° |
| 2026-05-05 21:35 | 63.30805 | -19.77758 | 27034 ft | 321 kts | 302° |
| 2026-05-05 21:35 | 63.32070 | -19.81767 | 26679 ft | 316 kts | 302° |
| 2026-05-05 21:35 | 63.33325 | -19.85761 | 26321 ft | 311 kts | 302° |
| 2026-05-05 21:36 | 63.34563 | -19.89691 | 25970 ft | 306 kts | 302° |
| 2026-05-05 21:36 | 63.35781 | -19.93559 | 25612 ft | 303 kts | 302° |
| 2026-05-05 21:36 | 63.36983 | -19.97387 | 25255 ft | 301 kts | 301° |
| 2026-05-05 21:36 | 63.38161 | -20.01167 | 24901 ft | 299 kts | 301° |
| 2026-05-05 21:37 | 63.39342 | -20.04970 | 24528 ft | 297 kts | 301° |
| 2026-05-05 21:37 | 63.40514 | -20.08752 | 24161 ft | 295 kts | 301° |
| 2026-05-05 21:37 | 63.41683 | -20.12517 | 23791 ft | 293 kts | 301° |
| 2026-05-05 21:37 | 63.42832 | -20.16218 | 23364 ft | 291 kts | 300° |
| 2026-05-05 21:38 | 63.43986 | -20.19934 | 22997 ft | 289 kts | 300° |
| 2026-05-05 21:38 | 63.45133 | -20.23623 | 22632 ft | 288 kts | 300° |
| 2026-05-05 21:38 | 63.46276 | -20.27308 | 22262 ft | 286 kts | 300° |
| 2026-05-05 21:38 | 63.47406 | -20.30964 | 21911 ft | 285 kts | 300° |
| 2026-05-05 21:39 | 63.48519 | -20.34571 | 21555 ft | 284 kts | 300° |
| 2026-05-05 21:39 | 63.49639 | -20.38215 | 21208 ft | 284 kts | 300° |
| 2026-05-05 21:39 | 63.50749 | -20.41833 | 20859 ft | 282 kts | 299° |
| 2026-05-05 21:39 | 63.51865 | -20.45481 | 20529 ft | 282 kts | 300° |
| 2026-05-05 21:40 | 63.52979 | -20.49128 | 20167 ft | 285 kts | 301° |
| 2026-05-05 21:40 | 63.54099 | -20.52796 | 19797 ft | 285 kts | 301° |
| 2026-05-05 21:40 | 63.55205 | -20.56501 | 19414 ft | 283 kts | 297° |
| 2026-05-05 21:40 | 63.56024 | -20.60462 | 19042 ft | 279 kts | 286° |
| 2026-05-05 21:41 | 63.56558 | -20.64640 | 18675 ft | 277 kts | 283° |
| 2026-05-05 21:41 | 63.57068 | -20.68822 | 18282 ft | 277 kts | 283° |
| 2026-05-05 21:41 | 63.57571 | -20.72936 | 17907 ft | 275 kts | 283° |
| 2026-05-05 21:41 | 63.58084 | -20.77127 | 17542 ft | 274 kts | 283° |
| 2026-05-05 21:42 | 63.58581 | -20.81184 | 17193 ft | 273 kts | 283° |
| 2026-05-05 21:42 | 63.59083 | -20.85299 | 16842 ft | 272 kts | 283° |
| 2026-05-05 21:42 | 63.59581 | -20.89406 | 16498 ft | 272 kts | 283° |
| 2026-05-05 21:42 | 63.60077 | -20.93505 | 16154 ft | 272 kts | 284° |
| 2026-05-05 21:43 | 63.60574 | -20.97606 | 15805 ft | 272 kts | 284° |
| 2026-05-05 21:43 | 63.61060 | -21.01644 | 15464 ft | 271 kts | 284° |
| 2026-05-05 21:43 | 63.61548 | -21.05721 | 15106 ft | 271 kts | 284° |
| 2026-05-05 21:43 | 63.62035 | -21.09804 | 14784 ft | 270 kts | 284° |
| 2026-05-05 21:44 | 63.62527 | -21.13923 | 14443 ft | 270 kts | 284° |
| 2026-05-05 21:44 | 63.63017 | -21.18021 | 14110 ft | 271 kts | 284° |
| 2026-05-05 21:44 | 63.63506 | -21.22121 | 13745 ft | 270 kts | 284° |
| 2026-05-05 21:44 | 63.63992 | -21.26197 | 13402 ft | 270 kts | 284° |
| 2026-05-05 21:45 | 63.64476 | -21.30288 | 13064 ft | 270 kts | 284° |
| 2026-05-05 21:45 | 63.64958 | -21.34373 | 12719 ft | 270 kts | 285° |
| 2026-05-05 21:45 | 63.65439 | -21.38454 | 12382 ft | 269 kts | 285° |
| 2026-05-05 21:45 | 63.65916 | -21.42532 | 12039 ft | 270 kts | 285° |
| 2026-05-05 21:46 | 63.66392 | -21.46616 | 11681 ft | 270 kts | 285° |
| 2026-05-05 21:46 | 63.66869 | -21.50699 | 11334 ft | 269 kts | 286° |
| 2026-05-05 21:46 | 63.67343 | -21.54780 | 10981 ft | 268 kts | 286° |
| 2026-05-05 21:46 | 63.67809 | -21.58785 | 10628 ft | 268 kts | 285° |
| 2026-05-05 21:47 | 63.68282 | -21.62871 | 10266 ft | 268 kts | 287° |
| 2026-05-05 21:47 | 63.68752 | -21.66940 | 9888 ft | 268 kts | 287° |
| 2026-05-05 21:47 | 63.69219 | -21.71010 | 9500 ft | 268 kts | 288° |
| 2026-05-05 21:47 | 63.69686 | -21.75086 | 9124 ft | 267 kts | 288° |
| 2026-05-05 21:48 | 63.70152 | -21.79159 | 8747 ft | 266 kts | 288° |
| 2026-05-05 21:48 | 63.70617 | -21.83203 | 8378 ft | 266 kts | 288° |
| 2026-05-05 21:48 | 63.71079 | -21.87244 | 7992 ft | 265 kts | 287° |
| 2026-05-05 21:48 | 63.71530 | -21.91215 | 7602 ft | 265 kts | 288° |
| 2026-05-05 21:49 | 63.71982 | -21.95242 | 7207 ft | 265 kts | 288° |
| 2026-05-05 21:49 | 63.72436 | -21.99289 | 6811 ft | 265 kts | 288° |
| 2026-05-05 21:49 | 63.72889 | -22.03317 | 6348 ft | 266 kts | 287° |
| 2026-05-05 21:49 | 63.73353 | -22.07441 | 5757 ft | 273 kts | 287° |
| 2026-05-05 21:50 | 63.73825 | -22.11628 | 5302 ft | 274 kts | 288° |
| 2026-05-05 21:50 | 63.74290 | -22.15776 | 4874 ft | 274 kts | 287° |
| 2026-05-05 21:50 | 63.74758 | -22.19982 | 4419 ft | 274 kts | 287° |
| 2026-05-05 21:50 | 63.75215 | -22.24118 | 3984 ft | 274 kts | 287° |
| 2026-05-05 21:51 | 63.75675 | -22.28289 | 3637 ft | 270 kts | 287° |
| 2026-05-05 21:51 | 63.76120 | -22.32339 | 3510 ft | 258 kts | 287° |
| 2026-05-05 21:51 | 63.76568 | -22.36149 | 3446 ft | 243 kts | 294° |
| 2026-05-05 21:51 | 63.77328 | -22.39570 | 3376 ft | 247 kts | 309° |
| 2026-05-05 21:52 | 63.79516 | -22.45556 | 2516 ft | 246 kts | 315° |
| 2026-05-05 21:52 | 63.80597 | -22.48489 | 2249 ft | 240 kts | 315° |
| 2026-05-05 21:52 | 63.81636 | -22.51331 | 2132 ft | 230 kts | 315° |
| 2026-05-05 21:53 | 63.82628 | -22.54055 | 2029 ft | 219 kts | 315° |
| 2026-05-05 21:53 | 63.83577 | -22.56663 | 1928 ft | 208 kts | 315° |
| 2026-05-05 21:53 | 63.84542 | -22.58911 | 1855 ft | 188 kts | 331° |
| 2026-05-05 21:53 | 63.85598 | -22.60161 | 1781 ft | 157 kts | 351° |
| 2026-05-05 21:54 | 63.86576 | -22.60554 | 1784 ft | 133 kts | 7° |
| 2026-05-05 21:54 | 63.87472 | -22.60552 | 1798 ft | 127 kts | 8° |
| 2026-05-05 21:54 | 63.88330 | -22.60552 | 1760 ft | 124 kts | 9° |
| 2026-05-05 21:54 | 63.89194 | -22.60552 | 1638 ft | 124 kts | 9° |
| 2026-05-05 21:55 | 63.90056 | -22.60550 | 1498 ft | 124 kts | 8° |
| 2026-05-05 21:55 | 63.90917 | -22.60550 | 1340 ft | 124 kts | 8° |
| 2026-05-05 21:55 | 63.91771 | -22.60549 | 1162 ft | 122 kts | 7° |
| 2026-05-05 21:55 | 63.92608 | -22.60549 | 985 ft | 121 kts | 7° |
| 2026-05-05 21:56 | 63.93450 | -22.60548 | 801 ft | 122 kts | 6° |
| 2026-05-05 21:56 | 63.94295 | -22.60547 | 630 ft | 123 kts | 4° |
| 2026-05-05 21:56 | 63.95151 | -22.60554 | 456 ft | 122 kts | 4° |
| 2026-05-05 21:56 | 63.95223 | -22.60557 | 435 ft | 123 kts | 4° |
| 2026-05-05 21:57 | 63.95924 | -22.60595 | 277 ft | 119 kts | 10° |
| 2026-05-05 21:57 | 63.96344 | -22.60555 | 221 ft | 121 kts | 5° |
| 2026-05-05 21:57 | 63.96372 | -22.60554 | 217 ft | 120 kts | 5° |
| 2026-05-05 21:57 | 63.96469 | -22.60549 | 210 ft | 120 kts | 4° |
| 2026-05-05 21:58 | 63.96729 | -22.60583 | 216 ft | 117 kts | 358° |
| 2026-05-05 21:58 | 63.96954 | -22.60609 | 211 ft | 113 kts | 6° |
| 2026-05-05 21:58 | 63.97670 | -22.60540 | 173 ft | 83 kts | 0° |
| 2026-05-05 21:58 | 63.98073 | -22.60540 | 171 ft | 41 kts | 359° |
| 2026-05-05 21:59 | 63.98330 | -22.60538 | 173 ft | 33 kts | 0° |
| 2026-05-05 21:59 | 63.98545 | -22.60538 | 177 ft | 29 kts | 359° |
| 2026-05-05 21:59 | 63.98728 | -22.60542 | 176 ft | 24 kts | 357° |
| 2026-05-05 21:59 | 63.98840 | -22.60692 | 175 ft | 23 kts | 316° |
| 2026-05-05 22:00 | 63.98875 | -22.60767 | 174 ft | 2 kts | 316° |
| 2026-05-05 22:00 | 63.98896 | -22.60813 | 173 ft | 7 kts | 316° |
| 2026-05-05 22:00 | 63.98942 | -22.60915 | 171 ft | 11 kts | 320° |
| 2026-05-05 22:00 | 63.98983 | -22.60940 | 171 ft | 11 kts | 354° |
| 2026-05-05 22:01 | 63.99066 | -22.60941 | 169 ft | 14 kts | 1° |
| 2026-05-05 22:01 | 63.99165 | -22.60982 | 164 ft | 16 kts | 306° |
| 2026-05-05 22:01 | 63.99173 | -22.61166 | 159 ft | 19 kts | 270° |